createdAt,value
2023-05-13T00:04:32.357Z,12.00
2023-05-13T00:09:33.978Z,9.52
2023-05-13T00:14:35.569Z,8.27
2023-05-13T00:19:37.143Z,7.95
2023-05-13T00:24:38.701Z,7.53
2023-05-13T00:29:40.229Z,12.43
2023-05-13T00:34:41.756Z,9.57
2023-05-13T00:39:43.210Z,7.22
2023-05-13T00:44:44.753Z,9.07
2023-05-13T00:49:46.341Z,12.93
2023-05-13T00:54:47.824Z,10.90
2023-05-13T00:59:49.674Z,10.82
2023-05-13T01:05:17.702Z,10.40
2023-05-13T01:15:29.302Z,13.40
2023-05-13T01:20:31.624Z,11.73
2023-05-13T01:25:33.126Z,12.68
2023-05-13T01:30:36.083Z,10.30
2023-05-13T01:35:37.916Z,12.70
2023-05-13T01:40:40.392Z,13.07
2023-05-13T01:45:42.050Z,10.80
2023-05-13T01:50:43.632Z,9.00
2023-05-13T01:55:45.123Z,12.10
2023-05-13T02:00:46.665Z,11.43
2023-05-13T02:05:48.963Z,10.15
2023-05-13T02:11:00.789Z,13.32
2023-05-13T02:16:03.415Z,10.13
2023-05-13T02:21:05.034Z,11.93
2023-05-13T02:26:06.552Z,9.95
2023-05-13T02:31:08.141Z,13.05
2023-05-13T02:36:09.691Z,11.82
2023-05-13T02:41:11.217Z,14.00
2023-05-13T02:46:12.871Z,9.98
2023-05-13T02:51:14.494Z,10.02
2023-05-13T02:56:16.852Z,10.70
2023-05-13T03:01:18.398Z,13.60
2023-05-13T03:06:19.941Z,11.23
2023-05-13T03:11:21.667Z,11.20
2023-05-13T03:16:23.308Z,11.88
2023-05-13T03:21:24.875Z,14.93
2023-05-13T03:26:26.782Z,12.15
2023-05-13T03:31:28.363Z,14.65
2023-05-13T03:36:29.926Z,14.70
2023-05-13T03:41:31.525Z,14.85
2023-05-13T03:46:34.192Z,16.05
2023-05-13T03:51:35.778Z,13.18
2023-05-13T03:56:37.292Z,13.00
2023-05-13T04:01:40.074Z,18.35
2023-05-13T04:06:41.752Z,19.27
2023-05-13T04:11:43.283Z,15.00
2023-05-13T04:16:44.974Z,16.98
2023-05-13T04:21:46.536Z,18.40
2023-05-13T04:26:48.052Z,16.25
2023-05-13T04:31:49.564Z,12.15
2023-05-13T04:36:51.151Z,11.85
2023-05-13T04:41:52.716Z,16.98
2023-05-13T04:46:54.279Z,15.70
2023-05-13T04:51:55.952Z,14.60
2023-05-13T04:56:57.930Z,12.30
2023-05-13T05:01:59.793Z,13.10
2023-05-13T05:07:01.430Z,18.15
2023-05-13T05:12:03.013Z,13.82
2023-05-13T05:17:04.844Z,17.17
2023-05-13T05:22:06.356Z,12.68
2023-05-13T05:27:07.880Z,11.68
2023-05-13T05:32:09.359Z,11.52
2023-05-13T05:37:10.937Z,15.50
2023-05-13T05:42:12.482Z,10.80
2023-05-13T05:47:13.975Z,14.35
2023-05-13T05:52:15.710Z,17.60
2023-05-13T05:57:17.309Z,11.95
2023-05-13T06:02:18.920Z,21.08
2023-05-13T06:07:20.561Z,13.00
2023-05-13T06:12:22.842Z,16.65
2023-05-13T06:17:25.687Z,7.88
2023-05-13T06:22:27.282Z,13.43
2023-05-13T06:27:28.863Z,10.68
2023-05-13T06:32:30.416Z,10.23
2023-05-13T06:37:31.953Z,10.35
2023-05-13T06:42:33.555Z,11.05
2023-05-13T06:47:35.767Z,13.38
2023-05-13T06:52:37.560Z,15.13
2023-05-13T06:57:43.093Z,10.18
2023-05-13T07:02:45.303Z,8.70
2023-05-13T07:07:46.898Z,11.60
2023-05-13T07:12:48.498Z,9.85
2023-05-13T07:17:50.133Z,13.25
2023-05-13T07:22:52.120Z,11.88
2023-05-13T07:27:53.665Z,10.63
2023-05-13T07:32:55.189Z,13.02
2023-05-13T07:37:56.746Z,8.63
2023-05-13T07:42:58.350Z,9.68
2023-05-13T07:48:00.053Z,11.57
2023-05-13T07:53:03.172Z,13.90
2023-05-13T07:58:04.693Z,9.40
2023-05-13T08:03:06.420Z,9.18
2023-05-13T08:08:08.086Z,12.32
2023-05-13T08:13:09.845Z,11.00
2023-05-13T08:18:11.447Z,12.15
2023-05-13T08:23:12.985Z,19.13
2023-05-13T08:28:14.477Z,15.05
2023-05-13T08:33:16.019Z,13.40
2023-05-13T08:38:17.602Z,10.02
2023-05-13T08:43:20.041Z,7.25
2023-05-13T08:48:22.146Z,8.38
2023-05-13T08:53:25.410Z,11.07
2023-05-13T08:58:27.012Z,11.57
2023-05-13T09:03:29.112Z,8.55
2023-05-13T09:08:32.589Z,11.90
2023-05-13T09:13:34.133Z,10.05
2023-05-13T09:18:35.952Z,9.20
2023-05-13T09:23:37.554Z,11.82
2023-05-13T09:28:39.039Z,6.53
2023-05-13T09:33:52.400Z,11.25
2023-05-13T09:38:55.416Z,9.85
2023-05-13T09:43:58.334Z,9.15
2023-05-13T09:49:01.676Z,9.52
2023-05-13T09:54:06.912Z,10.80
2023-05-13T09:59:08.489Z,10.38
2023-05-13T10:04:10.467Z,13.38
2023-05-13T10:09:12.140Z,10.93
2023-05-13T10:14:14.673Z,11.45
2023-05-13T10:19:17.521Z,10.95
2023-05-13T10:24:21.901Z,13.25
2023-05-13T10:29:25.493Z,10.60
2023-05-13T10:34:27.895Z,11.95
2023-05-13T10:39:29.292Z,8.63
2023-05-13T10:44:32.960Z,12.40
2023-05-13T10:49:35.059Z,15.50
2023-05-13T10:54:38.862Z,11.85
2023-05-13T11:00:13.764Z,10.45
2023-05-13T11:05:21.536Z,11.05
2023-05-13T11:10:29.839Z,7.70
2023-05-13T11:15:50.299Z,12.38
2023-05-13T11:20:54.752Z,13.60
2023-05-13T11:26:12.465Z,13.02
2023-05-13T11:31:17.236Z,10.60
2023-05-13T11:36:20.180Z,16.65
2023-05-13T11:41:22.037Z,14.43
2023-05-13T11:46:24.425Z,11.18
2023-05-13T11:51:26.104Z,14.07
2023-05-13T11:56:28.721Z,11.32
2023-05-13T12:01:30.218Z,12.00
2023-05-13T12:06:31.916Z,15.95
2023-05-13T12:11:33.922Z,11.95
2023-05-13T12:16:35.569Z,13.05
2023-05-13T12:21:38.308Z,14.07
2023-05-13T12:26:39.883Z,14.68
2023-05-13T12:32:03.640Z,15.25
2023-05-13T12:37:14.522Z,12.93
2023-05-13T12:42:17.371Z,15.32
2023-05-13T12:47:20.193Z,18.73
2023-05-13T12:52:22.116Z,15.52
2023-05-13T12:57:24.322Z,15.38
2023-05-13T13:02:26.017Z,14.55
2023-05-13T13:07:27.561Z,13.90
2023-05-13T13:12:29.140Z,16.27
2023-05-13T13:17:30.716Z,12.57
2023-05-13T13:22:32.503Z,21.67
2023-05-13T13:27:35.015Z,17.15
2023-05-13T13:32:36.687Z,19.02
2023-05-13T13:37:38.775Z,15.45
2023-05-13T13:42:44.671Z,16.50
2023-05-13T13:47:46.593Z,13.43
2023-05-13T13:52:48.227Z,19.00
2023-05-13T13:57:50.590Z,14.68
2023-05-13T14:02:52.299Z,14.38
2023-05-13T14:07:55.610Z,18.00
2023-05-13T14:12:57.151Z,12.40
2023-05-13T14:17:58.904Z,25.05
2023-05-13T14:23:00.448Z,15.35
2023-05-13T14:28:02.288Z,20.85
2023-05-13T14:33:04.066Z,17.23
2023-05-13T14:38:05.612Z,20.55
2023-05-13T14:43:07.182Z,12.23
2023-05-13T14:48:08.750Z,13.98
2023-05-13T14:53:10.314Z,17.23
2023-05-13T14:58:12.763Z,16.98
2023-05-13T15:03:14.585Z,17.25
2023-05-13T15:08:16.730Z,19.20
2023-05-13T15:13:18.903Z,16.52
2023-05-13T15:18:20.776Z,13.38
2023-05-13T15:23:22.413Z,14.95
2023-05-13T15:28:23.957Z,14.93
2023-05-13T15:33:26.754Z,14.23
2023-05-13T15:38:28.297Z,14.82
2023-05-13T15:43:30.790Z,12.43
2023-05-13T15:48:32.387Z,17.85
2023-05-13T15:53:33.990Z,13.63
2023-05-13T15:58:35.519Z,18.27
2023-05-13T16:03:38.576Z,18.88
2023-05-13T16:08:40.336Z,10.95
2023-05-13T16:13:41.913Z,13.25
2023-05-13T16:18:43.477Z,12.60
2023-05-13T16:23:45.024Z,12.32
2023-05-13T16:28:46.501Z,10.88
2023-05-13T16:33:48.059Z,12.80
2023-05-13T16:38:49.605Z,16.35
2023-05-13T16:43:51.119Z,12.88
2023-05-13T16:48:52.732Z,13.63
2023-05-13T16:53:54.356Z,12.23
2023-05-13T16:58:55.851Z,14.07
2023-05-13T17:03:57.388Z,13.88
2023-05-13T17:08:58.949Z,10.65
2023-05-13T17:14:00.428Z,15.23
2023-05-13T17:19:02.010Z,11.15
2023-05-13T17:24:03.866Z,11.30
2023-05-13T17:29:05.492Z,13.68
2023-05-13T17:34:07.108Z,17.05
2023-05-13T17:39:08.589Z,12.93
2023-05-13T17:44:10.102Z,16.60
2023-05-13T17:49:11.761Z,14.45
2023-05-13T17:54:14.155Z,16.58
2023-05-13T17:59:15.733Z,17.13
2023-05-13T18:04:17.367Z,13.48
2023-05-13T18:09:19.840Z,17.50
2023-05-13T18:14:21.402Z,17.08
2023-05-13T18:19:23.352Z,14.68
2023-05-13T18:24:24.824Z,16.42
2023-05-13T18:29:26.369Z,17.45
2023-05-13T18:34:27.972Z,22.27
2023-05-13T18:39:29.497Z,17.83
2023-05-13T18:44:31.122Z,17.33
2023-05-13T18:49:32.992Z,16.85
2023-05-13T18:54:35.426Z,16.83
2023-05-13T18:59:36.963Z,18.70
2023-05-13T19:04:38.436Z,19.13
2023-05-13T19:09:39.900Z,21.08
2023-05-13T19:14:41.586Z,18.13
2023-05-13T19:19:43.160Z,15.95
2023-05-13T19:24:44.706Z,20.73
2023-05-13T19:29:46.188Z,18.73
2023-05-13T19:34:47.717Z,20.40
2023-05-13T19:39:49.203Z,21.88
2023-05-13T19:44:50.753Z,16.25
2023-05-13T19:49:52.946Z,19.55
2023-05-13T19:54:54.472Z,21.63
2023-05-13T19:59:56.056Z,16.27
2023-05-13T20:04:57.637Z,22.95
2023-05-13T20:09:59.177Z,19.65
2023-05-13T20:15:01.910Z,18.55
2023-05-13T20:20:03.526Z,17.25
2023-05-13T20:25:05.413Z,16.85
2023-05-13T20:30:07.572Z,21.15
2023-05-13T20:35:10.132Z,24.95
2023-05-13T20:40:12.055Z,25.67
2023-05-13T20:45:13.706Z,19.83
2023-05-13T20:50:15.545Z,19.77
2023-05-13T20:55:17.821Z,17.80
2023-05-13T21:00:19.900Z,19.63
2023-05-13T21:05:21.656Z,20.60
2023-05-13T21:10:23.843Z,15.68
2023-05-13T21:15:25.670Z,20.50
2023-05-13T21:20:27.160Z,15.95
2023-05-13T21:25:28.723Z,15.35
2023-05-13T21:30:32.230Z,20.38
2023-05-13T21:35:33.733Z,16.17
2023-05-13T21:40:38.338Z,17.73
2023-05-13T21:45:40.196Z,20.10
2023-05-13T21:50:41.781Z,18.65
2023-05-13T21:55:44.246Z,18.67
2023-05-13T22:00:45.900Z,21.35
2023-05-13T22:05:47.451Z,19.23
2023-05-13T22:10:49.044Z,21.30
2023-05-13T22:15:50.553Z,21.20
2023-05-13T22:20:52.128Z,18.73
2023-05-13T22:25:53.701Z,20.17
2023-05-13T22:30:56.958Z,18.20
2023-05-13T22:35:58.561Z,19.83
2023-05-13T22:41:00.632Z,22.38
2023-05-13T22:46:02.385Z,19.73
2023-05-13T22:51:04.067Z,17.17
2023-05-13T22:56:07.380Z,19.52
2023-05-13T23:01:09.027Z,21.05
2023-05-13T23:06:11.197Z,16.73
2023-05-13T23:11:12.773Z,18.20
2023-05-13T23:16:14.460Z,17.30
2023-05-13T23:21:15.992Z,18.63
2023-05-13T23:26:17.479Z,17.92
2023-05-13T23:31:18.979Z,18.65
2023-05-13T23:36:20.602Z,18.67
2023-05-13T23:41:22.571Z,22.42
2023-05-13T23:46:24.278Z,19.27
2023-05-13T23:51:25.886Z,21.25
2023-05-13T23:56:27.436Z,19.58
